createdAt,value
2022-11-22T00:00:16.785Z,99864.09
2022-11-22T00:02:43.289Z,99845.44
2022-11-22T00:05:09.999Z,99840.69
2022-11-22T00:07:37.968Z,99836.66
2022-11-22T00:10:09.747Z,99847.28
2022-11-22T00:12:36.638Z,99837.50
2022-11-22T00:15:04.069Z,99750.25
2022-11-22T00:17:31.908Z,99817.94
2022-11-22T00:19:58.318Z,99858.44
2022-11-22T00:22:24.912Z,99864.84
2022-11-22T00:24:52.454Z,99864.75
2022-11-22T00:27:19.866Z,99813.69
2022-11-22T00:29:46.343Z,99884.16
2022-11-22T00:32:30.934Z,99828.72
2022-11-22T00:34:57.355Z,99862.44
2022-11-22T00:37:23.766Z,99862.91
2022-11-22T00:39:50.326Z,99845.47
2022-11-22T00:42:17.057Z,99859.97
2022-11-22T00:44:43.507Z,99864.63
2022-11-22T00:47:09.942Z,99720.00
2022-11-22T00:49:36.368Z,99872.38
2022-11-22T00:52:02.857Z,99842.22
2022-11-22T00:54:29.279Z,99862.72
2022-11-22T00:56:55.703Z,99854.25
2022-11-22T00:59:22.126Z,99854.00
2022-11-22T01:01:48.609Z,99847.00
2022-11-22T01:04:15.173Z,99795.16
2022-11-22T01:06:41.647Z,99845.91
2022-11-22T01:09:08.073Z,99842.28
2022-11-22T01:11:34.492Z,99838.28
2022-11-22T01:14:00.922Z,99842.28
2022-11-22T01:16:27.383Z,99849.47
2022-11-22T01:18:53.811Z,99843.84
2022-11-22T01:21:20.312Z,99837.25
2022-11-22T01:23:46.731Z,99843.66
2022-11-22T01:26:13.166Z,99840.09
2022-11-22T01:28:39.675Z,99781.59
2022-11-22T01:31:06.131Z,99817.56
2022-11-22T01:33:32.641Z,99816.66
2022-11-22T01:35:59.063Z,99819.47
2022-11-22T01:38:25.892Z,99813.16
2022-11-22T01:40:53.304Z,99823.97
2022-11-22T01:43:22.741Z,99822.59
2022-11-22T01:45:55.167Z,99833.72
2022-11-22T01:48:38.148Z,99822.38
2022-11-22T01:51:28.634Z,99822.59
2022-11-22T01:54:01.254Z,99808.91
2022-11-22T01:56:29.811Z,99772.84
2022-11-22T01:59:06.338Z,99782.28
2022-11-22T02:01:33.655Z,99770.13
2022-11-22T02:04:02.609Z,99838.28
2022-11-22T02:06:39.996Z,99789.63
2022-11-22T02:09:12.274Z,99820.13
2022-11-22T02:11:44.910Z,99808.13
2022-11-22T02:14:12.510Z,99814.16
2022-11-22T02:16:40.662Z,99807.84
2022-11-22T02:19:15.854Z,99794.78
2022-11-22T02:21:43.781Z,99733.31
2022-11-22T02:24:23.746Z,99755.16
2022-11-22T02:26:50.212Z,99790.81
2022-11-22T02:29:17.104Z,99739.69
2022-11-22T02:31:46.729Z,99778.63
2022-11-22T02:34:14.325Z,99781.75
2022-11-22T02:36:50.539Z,99733.31
2022-11-22T02:39:20.348Z,99772.97
2022-11-22T02:41:48.141Z,99770.78
2022-11-22T02:44:15.490Z,99779.47
2022-11-22T02:46:50.863Z,99739.69
2022-11-22T02:49:22.674Z,99765.03
2022-11-22T02:51:50.864Z,99719.38
2022-11-22T02:54:17.800Z,99688.00
2022-11-22T02:56:44.485Z,99695.78
2022-11-22T02:59:11.149Z,99644.19
2022-11-22T03:01:38.008Z,99662.84
2022-11-22T03:04:04.719Z,99751.78
2022-11-22T03:06:31.264Z,99759.19
2022-11-22T03:08:57.859Z,99688.59
2022-11-22T03:11:24.740Z,99745.34
2022-11-22T03:13:51.533Z,99739.59
2022-11-22T03:16:18.021Z,99706.22
2022-11-22T03:18:44.479Z,99719.16
2022-11-22T03:21:11.295Z,99719.44
2022-11-22T03:23:37.832Z,99729.75
2022-11-22T03:26:09.145Z,99736.59
2022-11-22T03:28:35.665Z,99754.78
2022-11-22T03:31:05.553Z,99752.94
2022-11-22T03:33:32.524Z,99708.75
2022-11-22T03:35:59.008Z,99735.81
2022-11-22T03:38:25.501Z,99717.41
2022-11-22T03:40:52.012Z,99733.13
2022-11-22T03:43:18.434Z,99733.69
2022-11-22T03:45:47.979Z,99729.94
2022-11-22T03:48:14.600Z,99730.88
2022-11-22T03:50:41.134Z,99666.22
2022-11-22T03:53:07.829Z,99726.72
2022-11-22T03:55:34.289Z,99669.81
2022-11-22T03:58:00.781Z,99716.97
2022-11-22T04:00:27.441Z,99698.09
2022-11-22T04:02:53.888Z,99728.72
2022-11-22T04:05:20.347Z,99700.03
2022-11-22T04:07:46.837Z,99717.94
2022-11-22T04:10:16.360Z,99712.44
2022-11-22T04:12:44.306Z,99715.56
2022-11-22T04:15:10.797Z,99714.91
2022-11-22T04:17:44.529Z,99720.41
2022-11-22T04:20:39.097Z,99727.75
2022-11-22T04:23:11.195Z,99723.06
2022-11-22T04:25:39.999Z,99718.97
2022-11-22T04:28:08.604Z,99659.03
2022-11-22T04:30:54.548Z,99721.09
2022-11-22T04:33:21.917Z,99723.56
2022-11-22T04:35:49.094Z,99724.56
2022-11-22T04:38:16.901Z,99710.00
2022-11-22T04:40:43.932Z,99700.13
2022-11-22T04:43:35.980Z,99689.16
2022-11-22T04:46:02.730Z,99649.31
2022-11-22T04:48:29.143Z,99693.41
2022-11-22T04:51:14.207Z,99632.91
2022-11-22T04:53:40.618Z,99690.69
2022-11-22T04:56:08.014Z,99683.69
2022-11-22T04:58:34.454Z,99596.38
2022-11-22T05:01:01.031Z,99689.25
2022-11-22T05:03:27.529Z,99700.44
2022-11-22T05:05:54.251Z,99622.88
2022-11-22T05:08:21.038Z,99677.78
2022-11-22T05:10:57.862Z,99668.25
2022-11-22T05:13:28.391Z,99685.16
2022-11-22T05:15:55.455Z,99630.56
2022-11-22T05:18:23.296Z,99698.06
2022-11-22T05:20:50.212Z,99681.22
2022-11-22T05:23:36.050Z,99689.19
2022-11-22T05:26:03.325Z,99684.53
2022-11-22T05:28:31.794Z,99682.25
2022-11-22T05:30:58.797Z,99656.22
2022-11-22T05:33:25.886Z,99676.38
2022-11-22T05:35:52.333Z,99684.16
2022-11-22T05:38:18.799Z,99696.66
2022-11-22T05:40:45.303Z,99695.09
2022-11-22T05:43:11.760Z,99694.16
2022-11-22T05:45:38.218Z,99694.81
2022-11-22T05:48:04.830Z,99690.38
2022-11-22T05:50:31.289Z,99624.69
2022-11-22T05:53:01.867Z,99693.13
2022-11-22T05:55:28.880Z,99680.94
2022-11-22T05:57:55.341Z,99618.19
2022-11-22T06:00:21.953Z,99626.78
2022-11-22T06:02:48.358Z,99650.13
2022-11-22T06:05:14.996Z,99701.56
2022-11-22T06:07:41.447Z,99646.47
2022-11-22T06:10:08.589Z,99641.06
2022-11-22T06:12:35.358Z,99701.28
2022-11-22T06:15:01.770Z,99660.00
2022-11-22T06:17:28.229Z,99702.84
2022-11-22T06:19:54.631Z,99703.91
2022-11-22T06:22:21.040Z,99705.25
2022-11-22T06:24:47.454Z,99700.72
2022-11-22T06:27:13.885Z,99711.78
2022-11-22T06:29:40.339Z,99718.34
2022-11-22T06:32:06.821Z,99711.97
2022-11-22T06:34:33.250Z,99724.97
2022-11-22T06:36:59.793Z,99682.16
2022-11-22T06:39:26.213Z,99731.34
2022-11-22T06:41:52.696Z,99720.44
2022-11-22T06:44:19.170Z,99713.69
2022-11-22T06:46:45.644Z,99716.75
2022-11-22T06:49:12.051Z,99721.19
2022-11-22T06:51:38.482Z,99670.25
2022-11-22T06:54:04.977Z,99732.63
2022-11-22T06:56:36.013Z,99731.78
2022-11-22T06:59:04.714Z,99725.16
2022-11-22T07:01:32.726Z,99704.41
2022-11-22T07:04:00.186Z,99725.06
2022-11-22T07:06:28.848Z,99680.44
2022-11-22T07:08:55.878Z,99726.19
2022-11-22T07:11:24.823Z,99723.84
2022-11-22T07:13:51.833Z,99724.28
2022-11-22T07:16:20.473Z,99718.78
2022-11-22T07:18:47.949Z,99718.22
2022-11-22T07:21:19.679Z,99693.41
2022-11-22T07:23:48.315Z,99724.38
2022-11-22T07:26:16.996Z,99707.34
2022-11-22T07:28:43.692Z,99721.34
2022-11-22T07:31:12.568Z,99699.22
2022-11-22T07:33:39.669Z,99674.94
2022-11-22T07:36:07.298Z,99706.66
2022-11-22T07:38:34.615Z,99704.28
2022-11-22T07:41:01.406Z,99643.53
2022-11-22T07:43:28.653Z,99703.94
2022-11-22T07:45:59.490Z,99656.13
2022-11-22T07:48:26.007Z,99703.50
2022-11-22T07:50:52.424Z,99669.34
2022-11-22T07:53:19.320Z,99665.25
2022-11-22T07:55:45.883Z,99651.47
2022-11-22T07:58:12.338Z,99709.19
2022-11-22T08:00:38.820Z,99707.91
2022-11-22T08:03:07.773Z,99714.41
2022-11-22T08:05:34.213Z,99705.59
2022-11-22T08:08:00.649Z,99706.84
2022-11-22T08:10:27.097Z,99706.75
2022-11-22T08:12:53.552Z,99711.25
2022-11-22T08:15:19.991Z,99716.09
2022-11-22T08:17:46.398Z,99723.31
2022-11-22T08:20:13.293Z,99717.91
2022-11-22T08:22:40.954Z,99633.13
2022-11-22T08:25:12.630Z,99729.16
2022-11-22T08:27:40.926Z,99704.56
2022-11-22T08:30:08.822Z,99739.53
2022-11-22T08:32:35.296Z,99711.16
2022-11-22T08:35:01.977Z,99734.41
2022-11-22T08:37:28.708Z,99736.81
2022-11-22T08:39:56.024Z,99747.19
2022-11-22T08:42:22.521Z,99711.34
2022-11-22T08:44:49.139Z,99755.91
2022-11-22T08:47:15.637Z,99751.28
2022-11-22T08:49:42.038Z,99753.44
2022-11-22T08:52:08.671Z,99764.69
2022-11-22T08:54:38.009Z,99700.34
2022-11-22T08:57:04.683Z,99756.59
2022-11-22T08:59:31.436Z,99716.84
2022-11-22T09:01:58.143Z,99750.72
2022-11-22T09:04:24.594Z,99665.16
2022-11-22T09:09:42.467Z,99751.03
2022-11-22T09:12:08.954Z,99766.00
2022-11-22T09:14:35.508Z,99766.63
2022-11-22T09:17:01.976Z,99765.72
2022-11-22T09:19:28.673Z,99734.09
2022-11-22T09:21:55.323Z,99774.91
2022-11-22T09:24:21.912Z,99778.97
2022-11-22T09:26:48.387Z,99781.25
2022-11-22T09:29:15.927Z,99742.72
2022-11-22T09:31:42.799Z,99777.50
2022-11-22T09:34:09.315Z,99786.34
2022-11-22T09:36:35.945Z,99768.69
2022-11-22T09:39:02.411Z,99758.06
2022-11-22T09:42:01.869Z,99741.31
2022-11-22T09:44:44.190Z,99798.66
2022-11-22T09:47:31.634Z,99732.84
2022-11-22T09:50:13.374Z,99719.84
2022-11-22T09:52:51.158Z,99748.53
2022-11-22T09:55:26.818Z,99798.16
2022-11-22T09:58:04.115Z,99795.88
2022-11-22T10:00:31.276Z,99760.84
2022-11-22T10:03:25.393Z,99739.91
2022-11-22T10:05:58.309Z,99783.41
2022-11-22T10:08:48.585Z,99783.06
2022-11-22T10:11:42.041Z,99750.16
2022-11-22T10:14:27.301Z,99789.94
2022-11-22T10:17:31.227Z,99784.53
2022-11-22T10:20:15.634Z,99745.06
2022-11-22T10:22:42.115Z,99740.84
2022-11-22T10:25:40.380Z,99783.13
2022-11-22T10:28:23.877Z,99783.78
2022-11-22T10:31:07.846Z,99777.19
2022-11-22T10:34:15.292Z,99789.69
2022-11-22T10:37:01.452Z,99792.78
2022-11-22T10:39:53.620Z,99801.06
2022-11-22T10:42:27.917Z,99745.78
2022-11-22T10:45:04.307Z,99755.69
2022-11-22T10:47:48.043Z,99791.78
2022-11-22T10:50:23.840Z,99801.66
2022-11-22T10:52:56.543Z,99786.97
2022-11-22T10:55:42.854Z,99799.25
2022-11-22T10:58:34.638Z,99790.72
2022-11-22T11:01:19.521Z,99663.75
2022-11-22T11:03:48.995Z,99783.44
2022-11-22T11:06:49.462Z,99782.69
2022-11-22T11:12:42.082Z,99794.59
2022-11-22T11:15:55.918Z,99795.78
2022-11-22T11:18:29.823Z,99802.81
2022-11-22T11:20:56.393Z,99738.28
2022-11-22T11:23:24.075Z,99795.25
2022-11-22T11:25:52.593Z,99794.00
2022-11-22T11:28:26.057Z,99759.38
2022-11-22T11:31:06.738Z,99793.56
2022-11-22T11:33:35.976Z,99796.34
2022-11-22T11:36:06.666Z,99763.53
2022-11-22T11:38:48.532Z,99787.50
2022-11-22T11:41:18.633Z,99797.19
2022-11-22T11:43:46.008Z,99793.88
2022-11-22T11:46:19.913Z,99789.00
2022-11-22T11:48:48.070Z,99795.06
2022-11-22T11:51:37.478Z,99756.09
2022-11-22T11:54:11.573Z,99785.50
2022-11-22T11:56:52.791Z,99746.94
2022-11-22T11:59:21.596Z,99735.88
2022-11-22T12:02:05.457Z,99746.53
2022-11-22T12:04:36.185Z,99764.19
2022-11-22T12:07:19.053Z,99765.78
2022-11-22T12:09:48.719Z,99767.56
2022-11-22T12:12:25.674Z,99739.38
2022-11-22T12:15:11.394Z,99761.09
2022-11-22T12:17:48.932Z,99784.63
2022-11-22T12:20:21.807Z,99775.16
2022-11-22T12:23:05.938Z,99776.59
2022-11-22T12:25:38.579Z,99726.06
2022-11-22T12:28:17.155Z,99776.63
2022-11-22T12:30:45.217Z,99772.56
2022-11-22T12:33:22.538Z,99768.94
2022-11-22T12:35:50.668Z,99780.44
2022-11-22T12:38:24.104Z,99773.59
2022-11-22T12:40:57.394Z,99770.50
2022-11-22T12:43:28.917Z,99754.72
2022-11-22T12:46:00.828Z,99770.75
2022-11-22T12:48:33.841Z,99770.88
2022-11-22T12:51:06.635Z,99776.47
2022-11-22T12:53:41.447Z,99772.50
2022-11-22T12:56:10.655Z,99772.53
2022-11-22T12:58:44.350Z,99776.56
2022-11-22T13:01:40.185Z,99778.91
2022-11-22T13:04:22.503Z,99773.81
2022-11-22T13:06:57.244Z,99775.50
2022-11-22T13:09:33.529Z,99763.94
2022-11-22T13:12:11.275Z,99763.53
2022-11-22T13:14:42.343Z,99745.19
2022-11-22T13:17:10.202Z,99768.09
2022-11-22T13:19:49.352Z,99770.97
2022-11-22T13:22:38.651Z,99781.69
2022-11-22T13:25:38.341Z,99789.84
2022-11-22T13:28:22.260Z,99792.09
2022-11-22T13:31:09.874Z,99795.13
2022-11-22T13:33:43.314Z,99802.56
2022-11-22T13:36:37.614Z,99787.47
2022-11-22T13:39:12.453Z,99811.00
2022-11-22T13:41:56.987Z,99811.13
2022-11-22T13:44:23.397Z,99823.69
2022-11-22T13:46:49.795Z,99817.22
2022-11-22T13:49:38.233Z,99804.00
2022-11-22T13:52:12.407Z,99812.41
2022-11-22T13:54:57.440Z,99822.63
2022-11-22T13:57:40.990Z,99778.13
2022-11-22T14:00:16.736Z,99829.56
2022-11-22T14:02:52.097Z,99814.25
2022-11-22T14:05:18.964Z,99825.00
2022-11-22T14:07:50.374Z,99829.13
2022-11-22T14:10:59.309Z,99748.34
2022-11-22T14:13:35.787Z,99812.09
2022-11-22T14:16:21.789Z,99807.72
2022-11-22T14:19:06.573Z,99804.63
2022-11-22T14:21:45.271Z,99815.94
2022-11-22T14:24:34.007Z,99811.88
2022-11-22T14:27:30.350Z,99775.03
2022-11-22T14:30:06.035Z,99809.84
2022-11-22T14:33:00.979Z,99806.66
2022-11-22T14:35:37.613Z,99814.94
2022-11-22T14:38:29.589Z,99822.09
2022-11-22T14:41:30.965Z,99818.44
2022-11-22T14:44:02.538Z,99817.00
2022-11-22T14:46:53.652Z,99791.97
2022-11-22T14:49:45.324Z,99813.16
2022-11-22T14:52:32.565Z,99819.44
2022-11-22T14:55:01.414Z,99651.50
2022-11-22T14:57:30.802Z,99773.66
2022-11-22T15:00:03.203Z,99839.78
2022-11-22T15:03:02.106Z,99834.66
2022-11-22T15:09:10.192Z,99835.53
2022-11-22T15:09:12.138Z,99832.75
2022-11-22T15:11:43.734Z,99840.31
2022-11-22T15:14:29.058Z,99837.88
2022-11-22T15:59:42.794Z,99857.28
2022-11-22T16:02:25.167Z,99819.91
2022-11-22T16:06:09.146Z,99854.00
2022-11-22T16:07:49.117Z,99830.44
2022-11-22T16:10:37.320Z,99865.28
2022-11-22T16:13:18.858Z,99867.53
2022-11-22T16:16:06.349Z,99870.59
2022-11-22T16:18:33.074Z,99873.72
2022-11-22T16:21:11.538Z,99867.31
2022-11-22T16:23:39.736Z,99867.63
2022-11-22T16:26:19.082Z,99874.69
2022-11-22T16:28:51.394Z,99868.88
2022-11-22T16:31:22.245Z,99867.91
2022-11-22T16:33:49.657Z,99874.59
2022-11-22T16:36:17.640Z,99876.72
2022-11-22T16:38:44.969Z,99837.44
2022-11-22T16:41:21.252Z,99884.22
2022-11-22T16:43:49.449Z,99881.47
2022-11-22T16:46:16.318Z,99780.66
2022-11-22T16:48:43.898Z,99880.31
2022-11-22T16:51:35.915Z,99880.72
2022-11-22T16:54:11.203Z,99878.38
2022-11-22T16:56:37.621Z,99874.91
2022-11-22T16:59:08.454Z,99867.97
2022-11-22T17:01:42.070Z,99818.25
2022-11-22T17:04:20.877Z,99885.28
2022-11-22T17:06:47.353Z,99890.69
2022-11-22T17:09:13.792Z,99886.31
2022-11-22T17:11:42.456Z,99845.75
2022-11-22T17:14:14.035Z,99873.63
2022-11-22T17:16:41.179Z,99830.78
2022-11-22T17:19:14.497Z,99876.59
2022-11-22T17:21:45.799Z,99870.78
2022-11-22T17:24:21.421Z,99881.31
2022-11-22T17:26:47.922Z,99892.69
2022-11-22T17:29:42.941Z,99894.66
2022-11-22T17:32:00.860Z,99879.03
2022-11-22T17:34:27.294Z,99866.25
2022-11-22T17:36:53.740Z,99912.94
2022-11-22T17:39:20.166Z,99873.97
2022-11-22T17:41:48.901Z,99901.31
2022-11-22T17:44:16.615Z,99919.94
2022-11-22T17:46:44.175Z,99890.59
2022-11-22T17:49:15.623Z,99926.75
2022-11-22T17:51:42.579Z,99816.81
2022-11-22T17:54:09.132Z,99935.16
2022-11-22T17:56:36.344Z,99888.78
2022-11-22T17:59:03.079Z,99926.72
2022-11-22T18:01:29.486Z,99918.47
2022-11-22T18:03:56.047Z,99921.41
2022-11-22T18:06:22.793Z,99930.28
2022-11-22T18:08:49.557Z,99935.19
2022-11-22T18:11:16.386Z,99931.91
2022-11-22T18:13:43.756Z,99939.78
2022-11-22T18:16:14.109Z,99942.03
2022-11-22T18:18:57.415Z,99860.59
2022-11-22T18:21:25.220Z,99929.22
2022-11-22T18:23:51.777Z,99923.47
2022-11-22T18:31:52.924Z,99888.00
2022-11-22T18:34:20.515Z,99897.38
2022-11-22T18:36:55.321Z,99859.25
2022-11-22T18:39:24.287Z,99921.47
2022-11-22T18:41:50.841Z,99917.41
2022-11-22T18:44:17.391Z,99859.88
2022-11-22T18:46:43.939Z,99912.81
2022-11-22T18:49:10.510Z,99929.44
2022-11-22T18:51:36.921Z,99919.00
2022-11-22T18:54:03.639Z,99918.31
2022-11-22T18:56:30.133Z,99918.22
2022-11-22T18:58:56.630Z,99909.75
2022-11-22T19:01:23.934Z,99917.47
2022-11-22T19:03:50.429Z,99936.03
2022-11-22T19:06:18.798Z,99859.34
2022-11-22T19:08:46.537Z,99928.31
2022-11-22T19:11:13.095Z,99924.72
2022-11-22T19:13:41.037Z,99827.72
2022-11-22T19:16:17.231Z,99917.56
2022-11-22T19:18:44.715Z,99881.41
2022-11-22T19:21:14.218Z,99901.66
2022-11-22T19:23:41.260Z,99856.88
2022-11-22T19:26:10.659Z,99910.47
2022-11-22T19:28:37.374Z,99820.69
2022-11-22T19:31:15.906Z,99915.41
2022-11-22T19:33:42.478Z,99919.97
2022-11-22T19:36:14.897Z,99919.97
2022-11-22T19:38:42.648Z,99909.06
2022-11-22T19:41:15.222Z,99922.34
2022-11-22T19:43:41.666Z,99872.41
2022-11-22T19:46:08.123Z,99872.50
2022-11-22T19:48:42.389Z,99924.09
2022-11-22T19:51:15.071Z,99865.50
2022-11-22T19:53:42.120Z,99897.47
2022-11-22T19:56:14.433Z,99868.00
2022-11-22T19:58:41.967Z,99880.53
2022-11-22T20:01:11.281Z,99775.84
2022-11-22T20:03:39.902Z,99908.91
2022-11-22T20:06:08.604Z,99890.97
2022-11-22T20:08:35.549Z,99910.56
2022-11-22T20:11:04.214Z,99862.34
2022-11-22T20:13:30.782Z,99925.56
2022-11-22T20:15:57.648Z,99916.16
2022-11-22T20:18:24.071Z,99917.41
2022-11-22T20:20:50.488Z,99915.03
2022-11-22T20:23:16.905Z,99916.03
2022-11-22T20:25:43.376Z,99918.03
2022-11-22T20:28:09.783Z,99924.09
2022-11-22T20:30:36.263Z,99924.81
2022-11-22T20:33:02.695Z,99907.78
2022-11-22T20:35:29.186Z,99889.69
2022-11-22T20:37:55.593Z,99911.28
2022-11-22T20:40:21.995Z,99914.78
2022-11-22T20:42:48.557Z,99918.63
2022-11-22T20:45:14.985Z,99914.19
2022-11-22T20:47:41.431Z,99911.13
2022-11-22T20:50:09.049Z,99889.69
2022-11-22T20:52:35.521Z,99808.13
2022-11-22T20:55:05.225Z,99869.72
2022-11-22T20:57:32.031Z,99837.53
2022-11-22T20:59:58.501Z,99913.31
2022-11-22T21:02:24.899Z,99900.06
2022-11-22T21:04:51.397Z,99878.28
2022-11-22T21:07:17.924Z,99915.03
2022-11-22T21:09:44.601Z,99870.25
2022-11-22T21:12:11.092Z,99919.44
2022-11-22T21:14:37.573Z,99917.72
2022-11-22T21:17:30.536Z,99876.91
2022-11-22T21:19:50.498Z,99850.72
2022-11-22T21:22:17.113Z,99819.47
2022-11-22T21:24:43.573Z,99878.06
2022-11-22T21:27:10.022Z,99937.53
2022-11-22T21:29:36.442Z,99933.16
2022-11-22T21:32:02.867Z,99934.00
2022-11-22T21:34:29.634Z,99891.22
2022-11-22T21:36:56.214Z,99889.06
2022-11-22T21:39:22.815Z,99942.13
2022-11-22T21:41:49.274Z,99920.25
2022-11-22T21:44:15.699Z,99898.47
2022-11-22T21:46:43.769Z,99937.53
2022-11-22T21:49:10.224Z,99896.94
2022-11-22T21:51:36.705Z,99886.88
2022-11-22T21:54:04.212Z,99952.44
2022-11-22T21:56:33.164Z,99955.56
2022-11-22T21:58:59.896Z,99942.31
2022-11-22T22:01:26.937Z,99855.75
2022-11-22T22:03:54.090Z,99953.63
2022-11-22T22:06:21.010Z,99948.44
2022-11-22T22:08:49.628Z,99937.91
2022-11-22T22:11:16.282Z,99928.56
2022-11-22T22:13:42.853Z,99937.31
2022-11-22T22:16:15.492Z,99940.59
2022-11-22T22:18:43.465Z,99930.88
2022-11-22T22:21:12.335Z,99944.59
2022-11-22T22:23:40.599Z,99929.34
2022-11-22T22:26:09.693Z,99936.38
2022-11-22T22:28:37.065Z,99896.69
2022-11-22T22:31:12.049Z,99878.69
2022-11-22T22:33:41.063Z,99943.09
2022-11-22T22:36:09.760Z,99944.44
2022-11-22T22:38:36.682Z,99945.66
2022-11-22T22:41:05.136Z,99848.66
2022-11-22T22:43:33.842Z,99933.59
2022-11-22T22:46:06.597Z,99929.63
2022-11-22T22:48:34.026Z,99885.03
2022-11-22T22:51:14.500Z,99933.69
2022-11-22T22:53:42.190Z,99940.34
2022-11-22T22:56:09.922Z,99934.34
2022-11-22T22:58:37.027Z,99940.53
2022-11-22T23:01:05.082Z,99879.44
2022-11-22T23:03:32.097Z,99936.75
2022-11-22T23:05:58.826Z,99938.91
2022-11-22T23:08:25.579Z,99945.66
2022-11-22T23:10:52.002Z,99926.88
2022-11-22T23:13:18.466Z,99930.38
2022-11-22T23:15:57.912Z,99933.88
2022-11-22T23:18:25.168Z,99941.16
2022-11-22T23:20:51.588Z,99850.13
2022-11-22T23:23:18.095Z,99926.66
2022-11-22T23:25:44.517Z,99916.22
2022-11-22T23:28:10.921Z,99927.34
2022-11-22T23:30:37.375Z,99920.00
2022-11-22T23:33:03.837Z,99930.44
2022-11-22T23:35:30.396Z,99925.56
2022-11-22T23:37:56.932Z,99922.81
2022-11-22T23:40:23.501Z,99911.72
2022-11-22T23:42:49.943Z,99930.47
2022-11-22T23:45:16.463Z,99935.34
2022-11-22T23:47:42.892Z,99924.22
2022-11-22T23:50:09.902Z,99926.78
2022-11-22T23:52:36.409Z,99914.41
2022-11-22T23:55:02.846Z,99922.38
2022-11-22T23:57:29.501Z,99925.03
2022-11-22T23:59:56.169Z,99938.44
